Time;durP1;ratioP1;P1;durP2;ratioP2;P2;SDS_P1;SDS_P2;PMS_P1;PMS_P2;Temp;Humidity;BMP_temperature;BMP_pressure;BME280_temperature;BME280_humidity;BME280_pressure;Samples;Min_cycle;Max_cycle;Signal;HPM_P1;HPM_P2
2022/04/01 00:00:18;;;;;;;3.10;2.80;;;;;;;3.11;nan;100428.56;5022616;28;20190;-77
2022/04/01 00:02:44;;;;;;;2.87;2.67;;;;;;;2.72;nan;100434.94;5021111;28;20472;-77
2022/04/01 00:05:09;;;;;;;4.70;2.40;;;;;;;3.52;nan;100431.69;5024665;28;20197;-77
2022/04/01 00:07:41;;;;;;;2.83;2.63;;;;;;;2.97;nan;100439.25;5022357;28;20409;-78
2022/04/01 00:10:08;;;;;;;3.10;2.90;;;;;;;3.05;nan;100423.22;5039912;28;20170;-75
2022/04/01 00:12:39;;;;;;;2.90;2.70;;;;;;;2.68;nan;100433.94;5040145;28;20683;-75
2022/04/01 00:15:05;;;;;;;3.70;3.40;;;;;;;3.28;nan;100432.59;5023611;28;20811;-79
2022/04/01 00:17:30;;;;;;;2.90;2.60;;;;;;;2.88;nan;100443.22;5021339;28;20429;-77
2022/04/01 00:19:56;;;;;;;2.97;2.77;;;;;;;3.10;nan;100437.13;5021427;28;20438;-78
2022/04/01 00:22:21;;;;;;;3.27;2.97;;;;;;;2.72;nan;100434.06;5021070;28;20186;-78
2022/04/01 00:24:46;;;;;;;3.50;3.10;;;;;;;3.72;nan;100429.75;5020766;28;20170;-76
2022/04/01 00:27:12;;;;;;;7.63;3.20;;;;;;;3.07;nan;100427.56;5021273;28;20174;-77
2022/04/01 00:29:37;;;;;;;3.33;2.70;;;;;;;2.72;nan;100428.91;5020644;28;20540;-75
2022/04/01 00:32:02;;;;;;;3.23;2.80;;;;;;;7.44;nan;100419.97;5020271;28;20186;-70
2022/04/01 00:34:30;;;;;;;2.80;2.60;;;;;;;4.55;nan;100415.94;5020225;28;20478;-73
2022/04/01 00:36:57;;;;;;;4.23;2.80;;;;;;;3.78;nan;100426.50;5019787;28;20163;-72
2022/04/01 00:39:24;;;;;;;4.63;2.97;;;;;;;3.19;nan;100434.84;5020101;28;20429;-73
2022/04/01 00:41:49;;;;;;;5.50;3.13;;;;;;;3.44;nan;100433.16;5020291;28;20421;-72
2022/04/01 00:44:21;;;;;;;2.80;2.60;;;;;;;3.04;nan;100442.94;5020330;28;20500;-72
2022/04/01 00:46:57;;;;;;;2.57;2.37;;;;;;;2.66;nan;100438.16;5020826;28;20162;-72
2022/04/01 00:49:24;;;;;;;2.93;2.63;;;;;;;3.12;nan;100435.47;5019528;28;20825;-72
2022/04/01 00:51:51;;;;;;;3.10;2.80;;;;;;;3.60;nan;100435.41;5019980;28;20500;-72
2022/04/01 00:54:17;;;;;;;3.17;2.63;;;;;;;3.10;nan;100439.69;5020133;28;20467;-72
2022/04/01 00:56:44;;;;;;;2.67;2.47;;;;;;;2.94;nan;100436.59;5020057;28;20410;-72
2022/04/01 00:59:10;;;;;;;2.70;2.50;;;;;;;3.02;nan;100436.88;5019948;28;20421;-70
2022/04/01 01:01:36;;;;;;;2.80;2.60;;;;;;;3.13;nan;100439.81;5018915;28;20557;-71
2022/04/01 01:04:13;;;;;;;4.57;2.70;;;;;;;2.64;nan;100446.66;5019034;28;20418;-71
2022/04/01 01:06:41;;;;;;;2.27;2.07;;;;;;;2.62;nan;100428.56;5019670;28;20690;-71
2022/04/01 01:09:07;;;;;;;3.53;2.67;;;;;;;2.86;nan;100433.72;5019948;28;20429;-71
2022/04/01 01:11:35;;;;;;;5.93;2.70;;;;;;;3.44;nan;100426.28;5019976;28;20441;-72
2022/04/01 01:14:02;;;;;;;10.43;2.73;;;;;;;2.60;nan;100424.19;5019786;28;20476;-72
2022/04/01 01:16:28;;;;;;;3.27;2.83;;;;;;;2.84;nan;100422.50;5019600;28;20695;-71
2022/04/01 01:19:11;;;;;;;2.87;2.50;;;;;;;3.22;nan;100424.69;5019934;28;20464;-72
2022/04/01 01:21:38;;;;;;;3.03;2.70;;;;;;;3.11;nan;100421.75;5019423;28;20500;-71
2022/04/01 01:24:05;;;;;;;2.93;2.73;;;;;;;2.76;nan;100425.63;5019649;28;20496;-72
2022/04/01 01:26:32;;;;;;;3.10;2.80;;;;;;;2.96;nan;100428.91;5035457;28;20417;-70
2022/04/01 01:28:58;;;;;;;3.90;2.97;;;;;;;2.86;nan;100427.72;5019467;28;20639;-70
2022/04/01 01:31:24;;;;;;;2.90;2.60;;;;;;;2.85;nan;100426.81;5019908;28;20436;-72
2022/04/01 01:33:50;;;;;;;2.23;2.03;;;;;;;2.58;nan;100426.69;5019392;28;20215;-71
2022/04/01 01:36:15;;;;;;;2.70;2.50;;;;;;;3.03;nan;100420.56;5019478;28;20496;-71
2022/04/01 01:38:41;;;;;;;2.93;2.63;;;;;;;3.10;nan;100419.09;5020071;28;20700;-71
2022/04/01 01:41:06;;;;;;;3.60;2.87;;;;;;;3.84;nan;100411.22;5019005;28;20218;-70
2022/04/01 01:43:31;;;;;;;3.00;2.80;;;;;;;2.57;nan;100418.94;5018420;28;20182;-71
2022/04/01 01:45:57;;;;;;;3.00;2.80;;;;;;;3.08;nan;100413.88;5019503;28;20532;-73
2022/04/01 01:48:24;;;;;;;3.33;2.70;;;;;;;2.58;nan;100420.69;5018668;28;20247;-71
2022/04/01 01:56:18;;;;;;;3.77;2.47;;;;;;;2.52;nan;100417.06;5019094;28;20412;-72
2022/04/01 01:58:43;;;;;;;2.60;2.40;;;;;;;2.81;nan;100416.38;5019320;28;20426;-71
2022/04/01 02:01:09;;;;;;;2.53;2.33;;;;;;;2.91;nan;100421.03;5018834;28;20450;-73
2022/04/01 02:03:35;;;;;;;3.77;2.90;;;;;;;2.56;nan;100418.06;5019375;28;20406;-72
2022/04/01 02:06:00;;;;;;;3.20;2.90;;;;;;;2.63;nan;100422.59;5018986;28;20432;-72
2022/04/01 02:08:25;;;;;;;2.90;2.70;;;;;;;2.63;nan;100422.59;5019077;28;20178;-72
2022/04/01 02:10:51;;;;;;;4.70;2.77;;;;;;;2.92;nan;100416.75;5019232;28;20167;-72
2022/04/01 02:13:17;;;;;;;2.80;2.57;;;;;;;3.41;nan;100412.41;5018687;28;20194;-72
2022/04/01 02:15:42;;;;;;;3.00;2.70;;;;;;;2.84;nan;100427.66;5018844;28;20177;-71
2022/04/01 02:18:08;;;;;;;2.80;2.53;;;;;;;2.37;nan;100431.94;5019143;28;20422;-72
2022/04/01 02:20:35;;;;;;;3.63;2.67;;;;;;;3.23;nan;100418.69;5018348;28;20222;-72
2022/04/01 02:23:01;;;;;;;2.90;2.60;;;;;;;2.75;nan;100419.59;5018511;28;20730;-71
2022/04/01 02:25:27;;;;;;;2.67;2.47;;;;;;;3.00;nan;100423.03;5019193;28;20214;-70
2022/04/01 02:27:53;;;;;;;20.23;3.63;;;;;;;3.41;nan;100422.72;5018564;28;20167;-72
2022/04/01 02:30:18;;;;;;;2.67;2.30;;;;;;;2.61;nan;100415.63;5018486;28;20418;-71
2022/04/01 02:32:43;;;;;;;2.40;2.20;;;;;;;2.78;nan;100427.44;5018860;28;20547;-73
2022/04/01 02:35:09;;;;;;;2.57;2.37;;;;;;;2.78;nan;100422.28;5018267;28;20229;-71
2022/04/01 02:37:35;;;;;;;2.80;2.50;;;;;;;3.44;nan;100420.25;5018334;28;20171;-72
2022/04/01 02:40:02;;;;;;;2.20;2.00;;;;;;;2.65;nan;100418.41;5018777;28;20454;-72
2022/04/01 02:42:27;;;;;;;2.90;2.70;;;;;;;2.77;nan;100422.22;5018303;28;20418;-72
2022/04/01 02:44:53;;;;;;;2.60;2.17;;;;;;;2.51;nan;100423.00;5018370;28;20897;-72
2022/04/01 02:47:20;;;;;;;3.40;2.33;;;;;;;2.72;nan;100429.78;5018226;28;20167;-71
2022/04/01 02:49:45;;;;;;;2.67;2.00;;;;;;;2.65;nan;100426.13;5017592;28;20182;-72
2022/04/01 02:52:11;;;;;;;3.27;2.53;;;;;;;3.18;nan;100428.84;5018148;28;20414;-72
2022/04/01 02:54:36;;;;;;;2.50;2.30;;;;;;;2.90;nan;100428.72;5018546;28;20497;-72
2022/04/01 02:57:02;;;;;;;2.90;2.60;;;;;;;2.94;nan;100438.28;5018351;28;20410;-71
2022/04/01 02:59:28;;;;;;;2.97;2.67;;;;;;;2.92;nan;100434.78;5018900;28;20174;-72
2022/04/01 03:01:53;;;;;;;3.37;2.13;;;;;;;2.60;nan;100424.19;5022508;28;20437;-72
2022/04/01 03:04:19;;;;;;;2.97;2.67;;;;;;;2.99;nan;100429.00;5022383;28;20244;-71
2022/04/01 03:06:44;;;;;;;4.40;2.37;;;;;;;2.61;nan;100431.09;5022232;28;20178;-74
2022/04/01 03:09:10;;;;;;;3.60;2.60;;;;;;;2.83;nan;100431.06;5021934;28;20189;-72
2022/04/01 03:11:37;;;;;;;2.03;1.83;;;;;;;2.25;nan;100431.47;5021995;28;20181;-74
2022/04/01 03:14:04;;;;;;;6.07;2.77;;;;;;;3.70;nan;100432.28;5022562;28;20485;-72
2022/04/01 03:16:29;;;;;;;2.50;2.30;;;;;;;2.41;nan;100438.06;5022410;28;20421;-72
2022/04/01 03:18:57;;;;;;;3.30;2.30;;;;;;;2.19;nan;100437.22;5021643;28;20815;-72
2022/04/01 03:21:24;;;;;;;3.17;2.60;;;;;;;2.74;nan;100437.56;5021312;28;20281;-72
2022/04/01 03:23:50;;;;;;;4.00;2.63;;;;;;;3.23;nan;100430.69;5022018;28;20448;-73
2022/04/01 03:26:15;;;;;;;2.40;2.20;;;;;;;2.58;nan;100431.84;5021617;28;20449;-72
2022/04/01 03:28:40;;;;;;;3.10;2.30;;;;;;;2.44;nan;100438.19;5021982;28;20167;-73
2022/04/01 03:31:06;;;;;;;6.43;2.53;;;;;;;2.40;nan;100432.03;5021976;28;20174;-73
2022/04/01 03:33:33;;;;;;;3.00;2.70;;;;;;;2.51;nan;100442.75;5021559;28;20222;-73
2022/04/01 03:35:58;;;;;;;3.00;2.80;;;;;;;2.76;nan;100446.22;5021610;28;20203;-72
2022/04/01 03:38:25;;;;;;;4.10;2.87;;;;;;;2.81;nan;100440.41;5022284;28;20742;-73
2022/04/01 03:40:51;;;;;;;2.87;2.60;;;;;;;2.21;nan;100458.75;5021445;28;20234;-74
2022/04/01 03:43:17;;;;;;;3.30;3.00;;;;;;;2.64;nan;100447.53;5021464;28;20691;-74
2022/04/01 03:45:48;;;;;;;6.27;3.33;;;;;;;2.76;nan;100449.69;5022099;28;20702;-73
2022/04/01 03:48:44;;;;;;;2.90;2.70;;;;;;;2.47;nan;100446.00;5021367;28;20718;-74
2022/04/01 03:51:12;;;;;;;5.13;3.43;;;;;;;3.23;nan;100443.59;5021455;28;20414;-73
2022/04/01 03:53:40;;;;;;;5.00;3.33;;;;;;;2.78;nan;100449.72;5021389;28;20418;-73
2022/04/01 03:56:06;;;;;;;4.47;3.37;;;;;;;2.91;nan;100457.09;5021266;28;20414;-73
2022/04/01 03:58:34;;;;;;;4.73;3.07;;;;;;;2.67;nan;100455.34;5022133;28;20485;-73
2022/04/01 04:01:02;;;;;;;4.63;4.03;;;;;;;2.41;nan;100459.53;5021206;28;20461;-73
2022/04/01 04:03:29;;;;;;;4.00;3.60;;;;;;;3.52;nan;100442.88;5021019;28;20429;-73
2022/04/01 04:05:55;;;;;;;3.33;3.00;;;;;;;2.82;nan;100451.59;5021535;28;20540;-73
2022/04/01 04:08:22;;;;;;;3.70;3.17;;;;;;;2.93;nan;100447.69;5021210;28;20422;-72
2022/04/01 04:10:48;;;;;;;3.87;3.10;;;;;;;2.56;nan;100471.19;5020354;28;20501;-74
2022/04/01 04:13:16;;;;;;;3.97;2.97;;;;;;;2.35;nan;100462.75;5020556;28;20417;-72
2022/04/01 04:16:04;;;;;;;4.63;3.30;;;;;;;2.53;nan;100459.13;5020839;28;20861;-72
2022/04/01 04:18:47;;;;;;;3.30;3.00;;;;;;;2.62;nan;100469.75;5020055;28;20410;-74
2022/04/01 04:21:29;;;;;;;4.00;2.83;;;;;;;2.22;nan;100483.66;5020743;28;20783;-72
2022/04/01 04:24:00;;;;;;;4.47;3.50;;;;;;;2.68;nan;100475.13;5020712;28;20417;-72
2022/04/01 04:26:31;;;;;;;4.43;3.70;;;;;;;2.90;nan;100475.06;5020773;28;20501;-72
2022/04/01 04:29:02;;;;;;;3.90;3.53;;;;;;;2.65;nan;100480.16;5020576;28;20505;-73
2022/04/01 04:31:30;;;;;;;4.10;3.77;;;;;;;2.52;nan;100475.38;5019910;28;20731;-72
2022/04/01 04:33:56;;;;;;;4.00;3.57;;;;;;;2.96;nan;100476.13;5020365;28;20900;-73
2022/04/01 04:36:27;;;;;;;4.50;3.87;;;;;;;2.61;nan;100483.44;5020696;28;20417;-72
2022/04/01 04:38:54;;;;;;;5.57;3.23;;;;;;;2.54;nan;100481.44;5019836;28;20434;-74
2022/04/01 04:41:20;;;;;;;3.60;3.30;;;;;;;3.26;nan;100493.53;5020457;28;20556;-71
2022/04/01 04:43:47;;;;;;;7.60;3.97;;;;;;;3.29;nan;100488.47;5020325;28;20429;-72
2022/04/01 04:46:14;;;;;;;5.00;3.90;;;;;;;3.37;nan;100499.06;5019712;28;20421;-72
2022/04/01 04:48:41;;;;;;;4.30;3.30;;;;;;;2.74;nan;100496.78;5020855;28;20696;-72
2022/04/01 04:51:07;;;;;;;6.87;3.87;;;;;;;2.90;nan;100493.94;5020221;28;20492;-73
2022/04/01 04:53:34;;;;;;;7.67;3.93;;;;;;;2.74;nan;100500.22;5020428;28;20418;-72
2022/04/01 04:56:00;;;;;;;7.80;3.27;;;;;;;2.44;nan;100513.66;5020659;28;20410;-73
2022/04/01 04:58:31;;;;;;;4.60;3.23;;;;;;;2.46;nan;100514.63;5020109;28;20440;-72
2022/04/01 05:01:01;;;;;;;6.57;3.57;;;;;;;2.57;nan;100509.88;5019732;28;20207;-72
2022/04/01 05:03:36;;;;;;;3.93;3.60;;;;;;;2.57;nan;100527.00;5019651;28;20663;-74
2022/04/01 05:06:02;;;;;;;6.30;3.50;;;;;;;2.40;nan;100514.38;5019755;28;20873;-72
2022/04/01 05:08:50;;;;;;;5.10;4.07;;;;;;;2.85;nan;100534.09;5020141;28;20497;-72
2022/04/01 05:11:21;;;;;;;4.70;4.00;;;;;;;2.87;nan;100532.47;5018948;28;20175;-73
2022/04/01 05:14:00;;;;;;;4.23;3.83;;;;;;;2.55;nan;100529.53;5019628;28;20418;-73
2022/04/01 05:16:28;;;;;;;5.53;3.73;;;;;;;2.98;nan;100526.00;5020108;28;20433;-73
2022/04/01 05:19:02;;;;;;;7.83;4.20;;;;;;;2.41;nan;100538.38;5019751;28;20410;-74
2022/04/01 05:21:38;;;;;;;7.13;3.67;;;;;;;2.51;nan;100533.66;5019490;28;20461;-73
2022/04/01 05:24:06;;;;;;;4.50;4.10;;;;;;;3.19;nan;100532.75;5019220;28;20424;-73
2022/04/01 05:26:40;;;;;;;4.73;3.70;;;;;;;2.57;nan;100521.84;5019656;28;20866;-72
2022/04/01 05:29:13;;;;;;;5.00;4.23;;;;;;;2.83;nan;100543.47;5019674;28;20424;-74
2022/04/01 05:32:00;;;;;;;6.37;4.00;;;;;;;2.50;nan;100543.91;5019625;28;20418;-74
2022/04/01 05:34:39;;;;;;;5.37;4.37;;;;;;;2.92;nan;100546.34;5019789;28;20460;-73
2022/04/01 05:37:05;;;;;;;4.37;3.97;;;;;;;2.80;nan;100548.47;5019042;28;20549;-74
2022/04/01 05:39:31;;;;;;;5.10;4.17;;;;;;;2.88;nan;100554.78;5002467;28;20776;-74
2022/04/01 05:41:57;;;;;;;5.37;4.30;;;;;;;2.44;nan;100546.25;5018874;28;20470;-73
2022/04/01 05:44:24;;;;;;;6.90;4.13;;;;;;;2.79;nan;100554.47;5019114;28;20418;-74
2022/04/01 05:46:51;;;;;;;5.17;4.00;;;;;;;2.88;nan;100559.94;5019632;28;20175;-72
2022/04/01 05:49:18;;;;;;;7.73;3.70;;;;;;;2.24;nan;100566.91;5019341;28;20433;-73
2022/04/01 05:51:45;;;;;;;6.33;4.70;;;;;;;3.22;nan;100562.91;5019567;28;20417;-73
2022/04/01 05:54:11;;;;;;;6.07;4.23;;;;;;;2.69;nan;100566.97;5019227;28;20665;-73
2022/04/01 05:56:38;;;;;;;4.87;4.03;;;;;;;2.68;nan;100575.50;5018682;28;20456;-73
2022/04/01 05:59:03;;;;;;;4.97;4.07;;;;;;;3.30;nan;100569.19;5020004;28;20167;-72
2022/04/01 06:01:34;;;;;;;4.87;4.00;;;;;;;3.47;nan;100567.25;5018773;28;20531;-73
2022/04/01 06:04:29;;;;;;;7.17;6.50;;;;;;;3.15;nan;100578.16;5019128;28;20208;-73
2022/04/01 06:07:04;;;;;;;5.03;3.93;;;;;;;2.53;nan;100583.50;5018735;28;20414;-72
2022/04/01 06:09:46;;;;;;;5.70;4.00;;;;;;;2.77;nan;100597.28;5019117;28;20679;-72
2022/04/01 06:12:24;;;;;;;4.43;4.00;;;;;;;2.72;nan;100593.63;5018214;28;20444;-73
2022/04/01 06:15:13;;;;;;;5.93;4.70;;;;;;;3.62;nan;100593.56;5018383;28;20424;-74
2022/04/01 06:17:57;;;;;;;5.73;4.10;;;;;;;2.87;nan;100604.56;5019043;28;20800;-74
2022/04/01 06:20:25;;;;;;;5.23;4.30;;;;;;;3.33;nan;100601.13;5018424;28;20531;-73
2022/04/01 06:22:58;;;;;;;9.70;5.47;;;;;;;3.11;nan;100604.59;5019392;28;20720;-73
2022/04/01 06:25:29;;;;;;;6.00;4.73;;;;;;;3.35;nan;100608.91;5018254;28;20414;-73
2022/04/01 06:28:16;;;;;;;6.07;5.23;;;;;;;2.87;nan;100609.69;5018906;28;20426;-73
2022/04/01 06:30:42;;;;;;;4.70;4.30;;;;;;;3.33;nan;100608.00;5017446;28;20503;-73
2022/04/01 06:33:20;;;;;;;5.03;4.53;;;;;;;3.22;nan;100617.00;5011013;28;20477;-72
2022/04/01 06:36:03;;;;;;;5.93;4.57;;;;;;;2.70;nan;100622.75;4999298;28;20433;-73
2022/04/01 06:38:39;;;;;;;4.57;4.17;;;;;;;2.78;nan;100628.22;5007532;28;20425;-74
2022/04/01 06:41:09;;;;;;;6.53;5.20;;;;;;;3.24;nan;100623.09;5018528;28;20556;-72
2022/04/01 06:43:35;;;;;;;5.27;4.77;;;;;;;3.46;nan;100633.34;5017880;28;20429;-74
2022/04/01 06:46:02;;;;;;;6.00;4.77;;;;;;;3.46;nan;100622.19;5011900;28;20435;-73
2022/04/01 06:48:27;;;;;;;6.43;4.83;;;;;;;3.53;nan;100619.91;4999771;28;20442;-73
2022/04/01 06:50:54;;;;;;;5.63;4.23;;;;;;;3.66;nan;100631.50;4998953;28;20418;-74
2022/04/01 06:53:20;;;;;;;6.80;4.30;;;;;;;2.84;nan;100641.34;5023837;28;20182;-72
2022/04/01 06:55:46;;;;;;;6.07;4.70;;;;;;;3.54;nan;100628.50;5018973;28;20413;-72
2022/04/01 06:58:12;;;;;;;6.80;4.60;;;;;;;3.53;nan;100635.34;5018710;28;20233;-73
2022/04/01 07:00:38;;;;;;;8.07;4.93;;;;;;;3.77;nan;100643.91;5018555;28;20477;-72
2022/04/01 07:03:04;;;;;;;8.40;4.70;;;;;;;3.20;nan;100651.31;5011345;28;20258;-74
2022/04/01 07:05:29;;;;;;;7.87;5.20;;;;;;;3.40;nan;100633.16;4998786;28;20695;-72
2022/04/01 07:07:55;;;;;;;5.77;4.23;;;;;;;3.11;nan;100642.34;4998835;28;20223;-73
2022/04/01 07:10:21;;;;;;;4.10;3.70;;;;;;;2.95;nan;100652.06;4998635;28;20160;-72
2022/04/01 07:12:46;;;;;;;8.27;5.00;;;;;;;3.57;nan;100644.06;5014818;28;20827;-73
2022/04/01 07:15:12;;;;;;;7.67;5.27;;;;;;;3.69;nan;100651.38;5017819;28;20218;-72
2022/04/01 07:17:38;;;;;;;4.53;4.13;;;;;;;3.16;nan;100658.88;5017531;28;20182;-72
2022/04/01 07:20:05;;;;;;;7.23;4.23;;;;;;;3.71;nan;100658.34;5017582;28;20457;-72
2022/04/01 07:22:31;;;;;;;7.20;4.30;;;;;;;5.70;nan;100650.03;5017876;28;20418;-60
2022/04/01 07:24:56;;;;;;;4.67;4.00;;;;;;;4.80;nan;100659.41;5021235;28;20468;-73
2022/04/01 07:27:21;;;;;;;7.97;4.33;;;;;;;4.68;nan;100660.78;5022505;28;20532;-76
2022/04/01 07:29:47;;;;;;;5.23;4.73;;;;;;;4.86;nan;100652.72;5017288;28;20434;-74
2022/04/01 07:32:32;;;;;;;5.40;4.53;;;;;;;3.97;nan;100660.09;5020864;28;20265;-76
2022/04/01 07:34:58;;;;;;;5.67;4.47;;;;;;;3.61;nan;100666.53;5014584;28;20273;-75
2022/04/01 07:37:24;;;;;;;8.67;5.03;;;;;;;4.31;nan;100662.13;5017161;28;20426;-78
2022/04/01 07:39:51;;;;;;;6.67;4.70;;;;;;;4.48;nan;100669.53;5018775;28;20425;-76
2022/04/01 07:42:18;;;;;;;5.47;4.97;;;;;;;4.28;nan;100671.47;5001044;28;20417;-78
2022/04/01 07:44:44;;;;;;;7.00;4.60;;;;;;;3.47;nan;100675.50;5018153;28;20409;-75
2022/04/01 07:47:09;;;;;;;5.80;4.80;;;;;;;4.82;nan;100668.94;5023489;28;20422;-75
2022/04/01 07:49:38;;;;;;;11.40;5.63;;;;;;;4.76;nan;100673.03;5017782;28;20432;-75
2022/04/01 07:52:10;;;;;;;4.57;4.17;;;;;;;3.82;nan;100686.22;5030905;28;20183;-75
2022/04/01 07:54:36;;;;;;;8.60;4.77;;;;;;;4.32;nan;100674.22;5015596;28;20445;-75
2022/04/01 07:57:06;;;;;;;5.57;4.13;;;;;;;3.71;nan;100686.69;5015110;28;20425;-76
2022/04/01 07:59:32;;;;;;;6.10;4.40;;;;;;;4.09;nan;100675.13;5013796;28;20529;-78
2022/04/01 08:01:57;;;;;;;7.33;5.37;;;;;;;4.34;nan;100690.63;5014518;28;20489;-74
2022/04/01 08:04:25;;;;;;;6.30;5.50;;;;;;;4.29;nan;100684.44;5015254;28;20217;-74
2022/04/01 08:06:54;;;;;;;8.47;4.67;;;;;;;4.20;nan;100684.13;5015496;28;20210;-77
2022/04/01 08:09:19;;;;;;;5.60;5.00;;;;;;;5.47;nan;100677.81;5013080;28;20430;-76
2022/04/01 08:11:44;;;;;;;6.13;4.70;;;;;;;4.54;nan;100672.34;5015261;28;20477;-76
2022/04/01 08:14:10;;;;;;;7.13;4.37;;;;;;;5.03;nan;100673.94;5015844;28;20217;-77
2022/04/01 08:16:35;;;;;;;8.63;5.30;;;;;;;4.31;nan;100693.09;5029794;28;20509;-77
2022/04/01 08:19:02;;;;;;;5.50;4.50;;;;;;;4.38;nan;100687.34;5014493;28;20179;-77
2022/04/01 08:21:28;;;;;;;6.23;5.17;;;;;;;4.91;nan;100701.94;5013119;28;20207;-75
2022/04/01 08:23:54;;;;;;;5.30;4.53;;;;;;;4.36;nan;100688.97;5014833;28;20473;-75
2022/04/01 08:26:19;;;;;;;5.70;4.53;;;;;;;4.03;nan;100686.09;5015892;28;21612;-75
2022/04/01 08:28:44;;;;;;;5.33;4.83;;;;;;;4.76;nan;100696.28;5015703;28;20187;-75
2022/04/01 08:31:10;;;;;;;6.93;5.03;;;;;;;4.14;nan;100691.63;5013722;28;20541;-76
2022/04/01 08:33:36;;;;;;;6.20;4.87;;;;;;;3.84;nan;100702.63;5014914;28;20317;-74
2022/04/01 08:36:02;;;;;;;5.07;4.00;;;;;;;3.82;nan;100704.28;5016037;28;20186;-75
2022/04/01 08:38:28;;;;;;;5.40;4.47;;;;;;;4.85;nan;100709.50;5014796;28;20779;-77
2022/04/01 08:40:54;;;;;;;5.33;4.83;;;;;;;4.07;nan;100718.03;5015596;28;20466;-75
2022/04/01 08:43:28;;;;;;;5.70;4.93;;;;;;;4.68;nan;100694.34;5013858;28;20186;-75
2022/04/01 08:45:56;;;;;;;12.90;5.50;;;;;;;5.09;nan;100704.25;5014523;28;20523;-75
2022/04/01 08:48:21;;;;;;;5.80;4.63;;;;;;;4.27;nan;100722.19;5014499;28;20866;-76
2022/04/01 08:50:47;;;;;;;9.03;5.70;;;;;;;5.56;nan;100701.31;5014584;28;20428;-75
2022/04/01 08:53:14;;;;;;;8.73;5.47;;;;;;;5.05;nan;100713.59;5014313;28;20225;-76
2022/04/01 08:55:45;;;;;;;5.63;5.13;;;;;;;5.07;nan;100716.22;5014975;28;20205;-75
2022/04/01 08:58:11;;;;;;;5.20;4.70;;;;;;;5.27;nan;100700.47;5013688;28;20438;-75
2022/04/01 09:00:36;;;;;;;7.63;5.83;;;;;;;5.09;nan;100716.25;5013992;28;20551;-75
2022/04/01 09:03:06;;;;;;;7.00;5.90;;;;;;;4.88;nan;100709.59;5014952;28;20202;-75
2022/04/01 09:05:32;;;;;;;6.17;4.77;;;;;;;4.54;nan;100700.75;5013425;28;20183;-76
2022/04/01 09:08:02;;;;;;;8.10;5.43;;;;;;;5.30;nan;100729.84;5013390;28;20843;-76
2022/04/01 09:10:28;;;;;;;7.03;5.20;;;;;;;5.53;nan;100724.50;5013239;28;20539;-77
2022/04/01 09:12:53;;;;;;;5.80;4.40;;;;;;;4.36;nan;100713.91;5015086;28;20422;-76
2022/04/01 09:15:19;;;;;;;6.53;4.90;;;;;;;4.49;nan;100725.53;5013606;28;20202;-75
2022/04/01 09:17:46;;;;;;;5.80;5.20;;;;;;;4.32;nan;100727.53;5009379;28;20278;-74
2022/04/01 09:20:14;;;;;;;9.73;5.17;;;;;;;4.76;nan;100724.69;5008355;28;20210;-76
2022/04/01 09:22:42;;;;;;;7.10;4.87;;;;;;;5.14;nan;100722.47;5016752;28;20747;-77
2022/04/01 09:25:10;;;;;;;11.80;6.00;;;;;;;6.22;nan;100717.88;5030425;28;20433;-77
2022/04/01 09:27:53;;;;;;;4.80;4.30;;;;;;;5.10;nan;100731.84;5019675;28;20428;-76
2022/04/01 09:30:21;;;;;;;6.60;5.17;;;;;;;6.35;nan;100711.31;5021728;28;20429;-77
2022/04/01 09:32:51;;;;;;;7.20;4.80;;;;;;;5.00;nan;100734.94;5017475;28;20441;-78
2022/04/01 09:35:23;;;;;;;5.70;4.63;;;;;;;5.16;nan;100736.31;5034767;28;20521;-77
2022/04/01 09:38:03;;;;;;;4.60;4.20;;;;;;;4.75;nan;100729.00;5002216;28;20426;-79
2022/04/01 09:40:29;;;;;;;4.70;4.30;;;;;;;5.18;nan;100729.47;5033703;28;20782;-74
2022/04/01 09:42:58;;;;;;;6.00;4.70;;;;;;;5.01;nan;100735.00;5018860;28;20430;-74
2022/04/01 09:45:32;;;;;;;7.37;4.60;;;;;;;6.11;nan;100721.88;5018377;28;20217;-73
2022/04/01 09:48:01;;;;;;;4.40;4.00;;;;;;;5.36;nan;100730.06;5020881;28;20422;-75
2022/04/01 09:50:32;;;;;;;5.87;4.57;;;;;;;5.97;nan;100740.47;5016847;28;20485;-75
2022/04/01 09:53:19;;;;;;;5.10;4.23;;;;;;;5.32;nan;100741.13;5007059;28;20747;-75
2022/04/01 09:55:46;;;;;;;5.10;4.53;;;;;;;5.86;nan;100727.22;5018590;28;20486;-75
2022/04/01 09:58:13;;;;;;;4.53;4.10;;;;;;;5.65;nan;100726.59;5016395;28;20418;-75
2022/04/01 10:00:40;;;;;;;6.43;4.10;;;;;;;5.54;nan;100734.03;5012970;28;20911;-76
2022/04/01 10:03:06;;;;;;;4.03;3.67;;;;;;;4.97;nan;100725.41;4999836;28;20449;-76
2022/04/01 10:05:33;;;;;;;5.57;4.20;;;;;;;5.02;nan;100721.25;5025977;28;20430;-77
2022/04/01 10:08:04;;;;;;;4.20;3.80;;;;;;;4.92;nan;100742.44;5018877;28;20422;-77
2022/04/01 10:10:29;;;;;;;4.10;3.80;;;;;;;4.46;nan;100746.94;5019474;28;20445;-76
2022/04/01 10:13:01;;;;;;;4.93;4.23;;;;;;;5.98;nan;100733.59;5017491;28;20453;-76
2022/04/01 10:15:28;;;;;;;5.30;3.63;;;;;;;4.96;nan;100733.09;5016797;28;20193;-75
2022/04/01 10:17:58;;;;;;;9.10;4.50;;;;;;;5.44;nan;100734.56;5017815;28;20414;-72
2022/04/01 10:20:31;;;;;;;4.73;4.00;;;;;;;5.33;nan;100726.50;5017969;28;20500;-73
2022/04/01 10:22:56;;;;;;;7.40;4.80;;;;;;;5.53;nan;100740.03;5018338;28;20774;-75
2022/04/01 10:25:36;;;;;;;6.53;4.37;;;;;;;5.62;nan;100742.03;5016327;28;20445;-79
2022/04/01 10:28:04;;;;;;;6.90;5.03;;;;;;;5.37;nan;100741.25;5016915;28;20186;-79
2022/04/01 10:30:34;;;;;;;3.47;3.17;;;;;;;4.61;nan;100748.31;5015871;28;20731;-78
2022/04/01 10:32:59;;;;;;;3.93;3.53;;;;;;;4.97;nan;100740.91;5015433;28;20425;-80
2022/04/01 10:35:26;;;;;;;4.10;3.70;;;;;;;4.78;nan;100735.97;5016149;28;20427;-79
2022/04/01 10:37:53;;;;;;;8.37;4.07;;;;;;;5.77;nan;100733.84;5017065;28;20487;-80
2022/04/01 10:40:19;;;;;;;3.93;3.63;;;;;;;5.17;nan;100738.09;5028894;28;20467;-75
2022/04/01 10:42:46;;;;;;;4.73;4.33;;;;;;;5.51;nan;100740.00;5017942;28;20748;-75
2022/04/01 10:45:17;;;;;;;5.00;4.40;;;;;;;5.17;nan;100745.84;5017129;28;20195;-74
2022/04/01 10:53:42;;;;;;;9.67;4.10;;;;;;;6.28;nan;100737.88;5015600;28;20454;-76
2022/04/01 10:56:22;;;;;;;5.10;4.37;;;;;;;6.68;nan;100732.00;5016409;28;20451;-75
2022/04/01 10:59:08;;;;;;;5.23;4.73;;;;;;;6.95;nan;100733.53;4998318;28;20427;-77
2022/04/01 11:01:36;;;;;;;4.37;3.97;;;;;;;5.89;nan;100748.00;4997929;28;20513;-75
2022/04/01 11:04:07;;;;;;;5.37;4.00;;;;;;;6.20;nan;100735.09;5005026;28;20445;-79
2022/04/01 11:06:49;;;;;;;4.73;4.27;;;;;;;6.46;nan;100750.44;5017295;28;20520;-76
2022/04/01 11:09:35;;;;;;;4.40;4.00;;;;;;;5.73;nan;100756.16;5014842;28;20492;-77
2022/04/01 11:12:30;;;;;;;4.33;3.87;;;;;;;5.33;nan;100748.06;5014465;28;20528;-78
2022/04/01 11:15:12;;;;;;;7.03;3.90;;;;;;;6.78;nan;100748.69;4990641;28;20446;-76
2022/04/01 11:17:37;;;;;;;4.33;3.90;;;;;;;5.68;nan;100743.09;4997434;28;20464;-76
2022/04/01 11:20:27;;;;;;;5.10;3.93;;;;;;;6.07;nan;100750.28;4997332;28;20415;-74
2022/04/01 11:22:52;;;;;;;5.40;4.50;;;;;;;5.96;nan;100749.06;5001912;28;20168;-78
2022/04/01 11:25:44;;;;;;;6.20;4.20;;;;;;;5.29;nan;100756.56;5002369;28;20418;-78
2022/04/01 11:28:14;;;;;;;8.03;4.50;;;;;;;6.63;nan;100749.19;5002356;28;20225;-76
2022/04/01 11:30:51;;;;;;;3.90;3.60;;;;;;;5.65;nan;100758.50;5004073;28;20413;-77
2022/04/01 11:33:20;;;;;;;4.23;3.70;;;;;;;6.16;nan;100753.97;5041460;28;20460;-77
2022/04/01 11:35:51;;;;;;;4.03;3.60;;;;;;;6.10;nan;100748.59;5041426;28;20405;-77
2022/04/01 11:38:19;;;;;;;6.70;4.37;;;;;;;6.38;nan;100745.91;5041063;28;20711;-77
2022/04/01 11:40:51;;;;;;;8.53;4.07;;;;;;;7.05;nan;100743.31;5040368;28;20472;-78
2022/04/01 11:43:20;;;;;;;7.80;4.17;;;;;;;6.25;nan;100749.00;5041542;28;20413;-77
2022/04/01 11:46:02;;;;;;;5.33;4.17;;;;;;;6.97;nan;100737.06;5026596;28;20417;-76
2022/04/01 11:48:32;;;;;;;7.13;5.70;;;;;;;6.74;nan;100745.13;5021488;28;20414;-76
2022/04/01 11:51:00;;;;;;;6.73;3.87;;;;;;;6.77;nan;100735.69;5020576;28;20424;-77
2022/04/01 11:53:30;;;;;;;5.03;4.00;;;;;;;7.01;nan;100745.78;5021387;28;20421;-76
2022/04/01 11:55:55;;;;;;;4.70;3.70;;;;;;;5.95;nan;100730.91;5021172;28;20418;-72
2022/04/01 11:58:21;;;;;;;5.70;4.40;;;;;;;6.72;nan;100731.28;5022100;28;20429;-73
2022/04/01 12:00:48;;;;;;;4.20;3.80;;;;;;;6.46;nan;100747.84;5021506;28;20211;-71
2022/04/01 12:03:14;;;;;;;8.53;4.23;;;;;;;5.92;nan;100747.22;5021300;28;20755;-74
2022/04/01 12:05:39;;;;;;;7.80;4.33;;;;;;;6.03;nan;100740.66;5021307;28;20445;-72
2022/04/01 12:10:54;;;;;;;6.13;3.90;;;;;;;5.60;nan;100756.59;5020965;28;20262;-75
2022/04/01 12:13:20;;;;;;;5.87;4.37;;;;;;;6.12;nan;100739.19;5020871;28;20713;-76